createdAt,value
2022-12-15T00:02:18.319Z,-5.89
2022-12-15T00:05:05.289Z,-5.88
2022-12-15T00:07:50.632Z,-5.87
2022-12-15T00:10:36.426Z,-5.56
2022-12-15T00:13:21.706Z,-5.38
2022-12-15T00:16:07.193Z,-5.30
2022-12-15T00:18:52.900Z,-5.51
2022-12-15T00:21:39.587Z,-5.78
2022-12-15T00:24:24.945Z,-5.66
2022-12-15T00:27:10.371Z,-5.69
2022-12-15T00:29:55.585Z,-5.51
2022-12-15T00:32:40.812Z,-5.44
2022-12-15T00:35:27.154Z,-5.54
2022-12-15T00:38:13.831Z,-5.32
2022-12-15T00:40:41.564Z,-5.46
2022-12-15T00:43:11.982Z,-5.25
2022-12-15T00:45:57.785Z,-5.34
2022-12-15T00:48:25.581Z,-5.86
2022-12-15T00:50:52.332Z,-5.99
2022-12-15T00:53:39.319Z,-6.15
2022-12-15T00:56:25.124Z,-5.96
2022-12-15T00:59:10.565Z,-5.85
2022-12-15T01:01:55.826Z,-5.56
2022-12-15T01:04:41.028Z,-5.76
2022-12-15T01:07:26.337Z,-5.72
2022-12-15T01:10:12.870Z,-5.41
2022-12-15T01:12:58.251Z,-5.14
2022-12-15T01:15:43.513Z,-5.38
2022-12-15T01:18:29.131Z,-5.70
2022-12-15T01:20:57.786Z,-5.39
2022-12-15T01:23:25.553Z,-5.31
2022-12-15T01:25:55.420Z,-5.47
2022-12-15T01:28:23.602Z,-5.68
2022-12-15T01:30:51.841Z,-5.25
2022-12-15T01:33:20.510Z,-5.75
2022-12-15T01:35:56.791Z,-5.40
2022-12-15T01:38:24.640Z,-5.66
2022-12-15T01:40:55.752Z,-5.48
2022-12-15T01:43:26.129Z,-5.87
2022-12-15T01:45:57.489Z,-5.69
2022-12-15T01:48:30.750Z,-5.83
2022-12-15T01:51:05.075Z,-5.73
2022-12-15T01:53:38.395Z,-5.55
2022-12-15T01:56:10.584Z,-5.68
2022-12-15T01:58:41.871Z,-6.20
2022-12-15T02:01:10.451Z,-6.53
2022-12-15T02:03:39.602Z,-6.04
2022-12-15T02:06:09.288Z,-6.06
2022-12-15T02:08:38.111Z,-5.78
2022-12-15T02:11:24.007Z,-6.03
2022-12-15T02:14:00.511Z,-6.03
2022-12-15T02:16:36.198Z,-6.04
2022-12-15T02:19:21.230Z,-5.60
2022-12-15T02:22:00.952Z,-6.07
2022-12-15T02:24:59.995Z,-6.44
2022-12-15T02:27:48.580Z,-6.22
2022-12-15T02:30:26.299Z,-6.38
2022-12-15T02:33:04.843Z,-5.64
2022-12-15T02:35:41.664Z,-6.06
2022-12-15T02:38:10.500Z,-6.48
2022-12-15T02:40:38.750Z,-6.35
2022-12-15T02:43:07.865Z,-6.60
2022-12-15T02:45:47.976Z,-6.51
2022-12-15T02:48:28.494Z,-6.39
2022-12-15T02:51:08.464Z,-6.34
2022-12-15T02:53:56.258Z,-6.41
2022-12-15T02:56:33.317Z,-6.12
2022-12-15T02:59:06.932Z,-6.25
2022-12-15T03:01:40.134Z,-5.58
2022-12-15T03:04:10.445Z,-5.79
2022-12-15T03:06:38.648Z,-6.16
2022-12-15T03:09:06.716Z,-5.96
2022-12-15T03:11:35.105Z,-5.75
2022-12-15T03:14:02.843Z,-5.65
2022-12-15T03:16:30.630Z,-5.35
2022-12-15T03:18:59.693Z,-5.24
2022-12-15T03:21:27.625Z,-5.53
2022-12-15T03:23:55.377Z,-5.76
2022-12-15T03:26:23.116Z,-5.14
2022-12-15T03:28:50.872Z,-5.65
2022-12-15T03:31:18.586Z,-5.45
2022-12-15T03:33:46.334Z,-5.02
2022-12-15T03:36:15.398Z,-4.65
2022-12-15T03:38:43.156Z,-5.39
2022-12-15T03:41:10.871Z,-4.97
2022-12-15T03:43:39.357Z,-5.00
2022-12-15T03:46:07.204Z,-4.85
2022-12-15T03:48:34.995Z,-5.82
2022-12-15T03:51:02.789Z,-5.89
2022-12-15T03:53:32.293Z,-5.71
2022-12-15T03:56:00.224Z,-5.80
2022-12-15T03:58:27.949Z,-6.00
2022-12-15T04:00:56.927Z,-5.79
2022-12-15T04:03:24.919Z,-5.80
2022-12-15T04:05:52.838Z,-6.11
2022-12-15T04:08:26.811Z,-5.63
2022-12-15T04:10:55.962Z,-5.90
2022-12-15T04:13:23.678Z,-5.61
2022-12-15T04:15:51.427Z,-5.36
2022-12-15T04:18:19.217Z,-5.45
2022-12-15T04:20:45.988Z,-5.76
2022-12-15T04:23:18.145Z,-5.86
2022-12-15T04:26:03.245Z,-5.38
2022-12-15T04:28:49.970Z,-5.46
2022-12-15T04:31:38.758Z,-5.73
2022-12-15T04:34:29.523Z,-5.53
2022-12-15T04:37:14.775Z,-4.97
2022-12-15T04:40:02.145Z,-5.18
2022-12-15T04:42:48.442Z,-5.38
2022-12-15T04:45:37.452Z,-5.33
2022-12-15T04:48:23.246Z,-5.76
2022-12-15T04:51:08.611Z,-5.63
2022-12-15T04:53:53.811Z,-5.29
2022-12-15T04:56:39.259Z,-5.15
2022-12-15T04:59:24.578Z,-5.29
2022-12-15T05:02:11.531Z,-5.35
2022-12-15T05:04:56.631Z,-5.21
2022-12-15T05:07:42.841Z,-5.41
2022-12-15T05:10:28.797Z,-5.44
2022-12-15T05:13:14.209Z,-5.53
2022-12-15T05:15:59.540Z,-5.49
2022-12-15T05:18:46.259Z,-5.51
2022-12-15T05:21:31.510Z,-5.61
2022-12-15T05:24:16.737Z,-5.69
2022-12-15T05:27:02.024Z,-5.59
2022-12-15T05:29:47.505Z,-5.50
2022-12-15T05:32:15.208Z,-5.26
2022-12-15T05:34:44.320Z,-5.39
2022-12-15T05:37:12.046Z,-5.14
2022-12-15T05:39:39.743Z,-5.34
2022-12-15T05:42:07.763Z,-5.22
2022-12-15T05:44:35.485Z,-5.30
2022-12-15T05:47:04.754Z,-5.36
2022-12-15T05:49:33.364Z,-5.35
2022-12-15T05:52:02.616Z,-5.73
2022-12-15T05:54:30.343Z,-6.04
2022-12-15T05:56:58.062Z,-5.70
2022-12-15T05:59:25.926Z,-5.79
2022-12-15T06:01:53.876Z,-5.11
2022-12-15T06:04:21.855Z,-5.53
2022-12-15T06:06:49.609Z,-4.65
2022-12-15T06:09:18.690Z,-4.49
2022-12-15T06:11:46.598Z,-4.65
2022-12-15T06:14:14.412Z,-4.76
2022-12-15T06:16:50.060Z,-4.47
2022-12-15T06:19:18.360Z,-4.30
2022-12-15T06:21:46.118Z,-4.29
2022-12-15T06:24:13.896Z,-4.26
2022-12-15T06:26:43.238Z,-4.55
2022-12-15T06:29:13.308Z,-4.04
2022-12-15T06:31:41.926Z,-4.45
2022-12-15T06:34:12.701Z,-4.15
2022-12-15T06:36:40.625Z,-4.75
2022-12-15T06:39:10.096Z,-4.91
2022-12-15T06:41:38.669Z,-4.32
2022-12-15T06:44:08.517Z,-4.90
2022-12-15T06:46:36.415Z,-4.39
2022-12-15T06:49:04.302Z,-4.72
2022-12-15T06:51:32.744Z,-4.86
2022-12-15T06:54:01.743Z,-5.00
2022-12-15T06:56:34.184Z,-4.53
2022-12-15T06:59:03.378Z,-4.82
2022-12-15T07:01:33.139Z,-4.20
2022-12-15T07:04:03.073Z,-4.27
2022-12-15T07:06:36.330Z,-4.47
2022-12-15T07:09:07.269Z,-4.31
2022-12-15T07:11:35.432Z,-4.10
2022-12-15T07:14:03.257Z,-4.21
2022-12-15T07:16:32.418Z,-4.22
2022-12-15T07:19:00.201Z,-4.32
2022-12-15T07:21:27.926Z,-4.35
2022-12-15T07:23:56.963Z,-4.49
2022-12-15T07:26:25.589Z,-4.09
2022-12-15T07:28:54.402Z,-4.44
2022-12-15T07:31:23.222Z,-3.89
2022-12-15T07:33:54.485Z,-4.03
2022-12-15T07:36:22.496Z,-4.51
2022-12-15T07:38:51.417Z,-3.83
2022-12-15T07:41:20.418Z,-3.64
2022-12-15T07:43:48.317Z,-4.09
2022-12-15T07:46:16.245Z,-3.72
2022-12-15T07:48:44.047Z,-3.74
2022-12-15T07:51:21.063Z,-3.70
2022-12-15T07:53:49.868Z,-4.16
2022-12-15T07:56:17.960Z,-4.46
2022-12-15T07:58:45.741Z,-3.97
2022-12-15T08:01:16.093Z,-3.96
2022-12-15T08:03:45.036Z,-3.39
2022-12-15T08:06:14.640Z,-4.06
2022-12-15T08:08:50.744Z,-3.73
2022-12-15T08:11:19.874Z,-3.53
2022-12-15T08:14:04.985Z,-3.72
2022-12-15T08:16:36.579Z,-3.99
2022-12-15T08:19:05.374Z,-3.73
2022-12-15T08:21:33.410Z,-3.92
2022-12-15T08:24:02.565Z,-3.71
2022-12-15T08:26:31.236Z,-3.98
2022-12-15T08:29:31.901Z,-4.10
2022-12-15T08:31:51.698Z,-3.84
2022-12-15T08:34:19.542Z,-4.03
2022-12-15T08:36:47.307Z,-3.66
2022-12-15T08:39:16.667Z,-3.86
2022-12-15T08:41:44.520Z,-3.72
2022-12-15T08:44:12.258Z,-3.65
2022-12-15T08:46:39.984Z,-3.47
2022-12-15T08:49:08.716Z,-3.17
2022-12-15T08:51:36.478Z,-3.32
2022-12-15T08:54:04.327Z,-3.39
2022-12-15T08:56:33.395Z,-3.80
2022-12-15T08:59:02.980Z,-3.50
2022-12-15T09:01:33.020Z,-2.97
2022-12-15T09:04:02.109Z,-1.75
2022-12-15T09:06:31.633Z,-1.62
2022-12-15T09:09:02.106Z,-1.67
2022-12-15T09:11:31.519Z,-1.54
2022-12-15T09:14:00.625Z,-2.17
2022-12-15T09:16:28.823Z,-0.42
2022-12-15T09:18:58.941Z,0.02
2022-12-15T09:21:29.650Z,-0.12
2022-12-15T09:24:00.740Z,0.08
2022-12-15T09:26:30.011Z,1.36
2022-12-15T09:28:58.091Z,0.64
2022-12-15T09:31:29.288Z,0.82
2022-12-15T09:34:00.167Z,0.81
2022-12-15T09:36:30.268Z,0.75
2022-12-15T09:38:57.986Z,0.75
2022-12-15T09:41:28.436Z,0.11
2022-12-15T09:43:59.669Z,-0.93
2022-12-15T09:46:43.256Z,-0.83
2022-12-15T09:49:17.618Z,-0.40
2022-12-15T09:51:51.544Z,-0.48
2022-12-15T09:54:32.308Z,-1.18
2022-12-15T09:57:03.797Z,-1.45
2022-12-15T09:59:36.366Z,-1.59
2022-12-15T10:02:29.371Z,-1.34
2022-12-15T10:05:06.404Z,-0.79
2022-12-15T10:07:41.973Z,-1.10
2022-12-15T10:10:17.410Z,-0.49
2022-12-15T10:12:57.642Z,-0.52
2022-12-15T10:15:32.312Z,-0.98
2022-12-15T10:18:06.959Z,-0.17
2022-12-15T10:20:34.778Z,-0.81
2022-12-15T10:23:12.461Z,-0.35
2022-12-15T10:25:40.400Z,-0.78
2022-12-15T10:28:22.847Z,-0.53
2022-12-15T10:30:58.238Z,-0.21
2022-12-15T10:33:32.325Z,-1.07
2022-12-15T10:36:00.246Z,-0.75
2022-12-15T10:38:37.765Z,-0.43
2022-12-15T10:41:07.422Z,-0.49
2022-12-15T10:43:37.798Z,-0.62
2022-12-15T10:46:13.519Z,-0.35
2022-12-15T10:48:43.867Z,-0.16
2022-12-15T10:51:24.502Z,-0.08
2022-12-15T10:53:54.688Z,-0.53
2022-12-15T10:56:32.346Z,-0.58
2022-12-15T10:59:02.803Z,0.06
2022-12-15T11:01:33.069Z,0.11
2022-12-15T11:04:02.582Z,-0.18
2022-12-15T11:06:33.301Z,-0.44
2022-12-15T11:09:10.742Z,-0.27
2022-12-15T11:12:12.020Z,-1.02
2022-12-15T11:14:45.778Z,-1.06
2022-12-15T11:17:17.997Z,-0.40
2022-12-15T11:19:56.758Z,-0.28
2022-12-15T11:22:38.460Z,-0.23
2022-12-15T11:25:16.450Z,-0.42
2022-12-15T11:27:46.340Z,-0.36
2022-12-15T11:30:16.992Z,-0.75
2022-12-15T11:32:48.875Z,-0.52
2022-12-15T11:35:23.406Z,0.11
2022-12-15T11:37:57.713Z,-0.08
2022-12-15T11:40:36.365Z,-0.95
2022-12-15T11:43:21.980Z,-0.76
2022-12-15T11:46:02.784Z,-1.43
2022-12-15T11:48:38.369Z,-0.94
2022-12-15T11:51:16.121Z,-1.05
2022-12-15T11:54:03.642Z,-0.15
2022-12-15T11:56:34.970Z,-0.47
2022-12-15T11:59:37.475Z,-0.86
2022-12-15T12:02:33.608Z,-0.52
2022-12-15T12:05:17.713Z,-0.84
2022-12-15T12:07:50.326Z,-1.31
2022-12-15T12:10:30.751Z,-0.90
2022-12-15T12:13:05.691Z,-1.12
2022-12-15T12:15:43.554Z,-0.72
2022-12-15T12:18:19.540Z,-0.54
2022-12-15T12:20:52.974Z,-0.82
2022-12-15T12:23:29.188Z,-0.91
2022-12-15T12:26:03.722Z,-0.56
2022-12-15T12:28:42.288Z,-0.93
2022-12-15T12:31:22.009Z,-0.72
2022-12-15T12:33:54.233Z,-0.56
2022-12-15T12:36:22.130Z,-1.15
2022-12-15T12:38:55.991Z,-1.00
2022-12-15T12:41:33.817Z,-1.35
2022-12-15T12:44:10.249Z,-1.05
2022-12-15T12:46:44.449Z,-1.22
2022-12-15T12:49:26.229Z,-1.58
2022-12-15T12:51:56.795Z,-1.19
2022-12-15T12:54:50.592Z,-1.28
2022-12-15T12:57:39.647Z,-1.63
2022-12-15T13:00:23.082Z,-1.92
2022-12-15T13:03:20.822Z,-1.79
2022-12-15T13:05:50.993Z,-1.85
2022-12-15T13:08:30.556Z,-1.79
2022-12-15T13:11:38.326Z,-1.64
2022-12-15T13:14:21.053Z,-1.14
2022-12-15T13:17:24.815Z,-1.22
2022-12-15T13:20:22.397Z,-1.04
2022-12-15T13:22:51.007Z,-1.48
2022-12-15T13:25:48.538Z,-1.15
2022-12-15T13:28:28.414Z,-1.47
2022-12-15T13:31:28.538Z,-1.89
2022-12-15T13:34:13.106Z,-1.68
2022-12-15T13:36:54.481Z,-1.30
2022-12-15T13:39:50.994Z,-0.89
2022-12-15T13:42:37.286Z,-1.61
2022-12-15T13:45:34.320Z,-1.24
2022-12-15T13:48:13.348Z,-0.83
2022-12-15T13:50:51.321Z,-1.41
2022-12-15T13:53:23.308Z,-1.47
2022-12-15T13:56:00.117Z,-1.28
2022-12-15T13:58:33.038Z,-1.56
2022-12-15T14:01:01.064Z,-1.40
2022-12-15T14:03:30.691Z,-1.26
2022-12-15T14:06:00.764Z,-1.18
2022-12-15T14:08:31.260Z,-1.51
2022-12-15T14:11:07.052Z,-1.04
2022-12-15T14:13:39.386Z,-0.74
2022-12-15T14:16:19.036Z,-0.43
2022-12-15T14:19:05.030Z,-0.36
2022-12-15T14:21:32.746Z,-0.57
2022-12-15T14:24:37.153Z,-0.69
2022-12-15T14:26:50.582Z,-1.04
2022-12-15T14:29:18.810Z,-1.24
2022-12-15T14:31:50.622Z,-1.31
2022-12-15T14:34:26.748Z,-0.91
2022-12-15T14:36:56.558Z,-1.18
2022-12-15T14:39:29.485Z,-1.16
2022-12-15T14:41:58.427Z,-0.92
2022-12-15T14:44:38.111Z,-1.06
2022-12-15T14:47:15.252Z,-1.04
2022-12-15T14:49:48.023Z,-1.37
2022-12-15T14:52:26.886Z,-0.85
2022-12-15T14:54:57.339Z,-0.99
2022-12-15T14:57:27.132Z,-0.69
2022-12-15T14:59:55.769Z,-0.93
2022-12-15T15:02:26.803Z,-0.40
2022-12-15T15:05:03.177Z,-0.18
2022-12-15T15:07:32.923Z,-0.54
2022-12-15T15:10:01.304Z,-0.68
2022-12-15T15:12:43.390Z,-0.35
2022-12-15T15:15:17.420Z,-0.12
2022-12-15T15:17:49.960Z,0.27
2022-12-15T15:20:26.684Z,-0.68
2022-12-15T15:23:14.123Z,-0.20
2022-12-15T15:25:49.325Z,-0.42
2022-12-15T15:28:23.321Z,-0.40
2022-12-15T15:30:56.409Z,-0.40
2022-12-15T15:33:25.657Z,0.02
2022-12-15T15:35:57.165Z,-0.30
2022-12-15T15:38:29.593Z,-0.33
2022-12-15T15:41:00.165Z,-0.57
2022-12-15T15:43:28.899Z,-0.90
2022-12-15T15:46:01.789Z,-0.79
2022-12-15T15:48:33.062Z,-0.94
2022-12-15T15:51:05.419Z,-0.30
2022-12-15T15:53:35.546Z,-0.31
2022-12-15T15:56:06.475Z,-0.12
2022-12-15T15:58:35.057Z,-0.66
2022-12-15T16:01:06.733Z,-0.52
2022-12-15T16:03:37.587Z,-0.70
2022-12-15T16:06:14.742Z,-0.63
2022-12-15T16:08:43.313Z,-1.05
2022-12-15T16:11:12.274Z,-0.25
2022-12-15T16:13:40.302Z,-0.32
2022-12-15T16:16:13.141Z,-0.77
2022-12-15T16:18:40.959Z,-0.48
2022-12-15T16:21:14.958Z,-0.39
2022-12-15T16:23:44.639Z,-0.23
2022-12-15T16:26:16.180Z,-0.45
2022-12-15T16:28:44.153Z,-0.76
2022-12-15T16:31:17.102Z,-0.83
2022-12-15T16:33:44.849Z,-0.76
2022-12-15T16:36:15.206Z,-0.70
2022-12-15T16:38:43.723Z,-0.47
2022-12-15T16:41:17.400Z,-0.69
2022-12-15T16:43:48.196Z,-1.22
2022-12-15T16:46:16.677Z,-0.64
2022-12-15T16:48:44.532Z,-0.39
2022-12-15T16:51:27.755Z,-0.48
2022-12-15T16:53:55.518Z,-0.45
2022-12-15T16:56:23.232Z,-0.72
2022-12-15T16:58:57.508Z,-0.62
2022-12-15T17:01:40.033Z,-0.95
2022-12-15T17:04:08.284Z,-0.90
2022-12-15T17:06:37.682Z,-0.86
2022-12-15T17:09:06.314Z,-1.13
2022-12-15T17:11:34.028Z,-1.02
2022-12-15T17:14:01.834Z,-1.20
2022-12-15T17:16:30.311Z,-0.72
2022-12-15T17:18:58.688Z,-1.06
2022-12-15T17:21:29.982Z,-0.79
2022-12-15T17:24:05.468Z,-0.69
2022-12-15T17:26:37.379Z,-0.66
2022-12-15T17:29:09.707Z,-0.43
2022-12-15T17:31:37.462Z,0.02
2022-12-15T17:34:23.935Z,0.13
2022-12-15T17:36:52.038Z,0.02
2022-12-15T17:39:22.908Z,0.35
2022-12-15T17:42:00.037Z,0.09
2022-12-15T17:44:33.717Z,0.01
2022-12-15T17:47:02.537Z,-0.12
2022-12-15T17:49:35.605Z,0.25
2022-12-15T17:52:08.270Z,0.35
2022-12-15T17:54:37.390Z,0.26
2022-12-15T17:57:05.173Z,0.10
2022-12-15T17:59:32.939Z,-0.27
2022-12-15T18:02:01.049Z,-0.40
2022-12-15T18:04:28.866Z,-0.34
2022-12-15T18:07:01.627Z,-0.31
2022-12-15T18:09:30.784Z,-0.56
2022-12-15T18:11:59.875Z,-0.22
2022-12-15T18:14:29.187Z,-0.13
2022-12-15T18:16:56.893Z,0.16
2022-12-15T18:19:24.632Z,0.15
2022-12-15T18:21:52.790Z,0.28
2022-12-15T18:24:21.653Z,0.64
2022-12-15T18:26:49.454Z,0.57
2022-12-15T18:29:18.844Z,0.34
2022-12-15T18:31:48.273Z,0.43
2022-12-15T18:34:18.664Z,0.05
2022-12-15T18:36:46.583Z,-0.02
2022-12-15T18:39:18.706Z,-0.41
2022-12-15T18:41:46.947Z,-0.45
2022-12-15T18:44:23.020Z,0.16
2022-12-15T18:46:50.894Z,0.21
2022-12-15T18:49:21.006Z,0.53
2022-12-15T18:51:49.371Z,0.08
2022-12-15T18:54:19.858Z,-0.26
2022-12-15T18:56:47.756Z,-0.49
2022-12-15T18:59:17.208Z,-0.83
2022-12-15T19:01:48.331Z,-0.42
2022-12-15T19:04:16.877Z,-0.79
2022-12-15T19:06:45.788Z,-0.80
2022-12-15T19:09:16.842Z,-0.27
2022-12-15T19:12:16.381Z,-0.44
2022-12-15T19:14:44.679Z,0.07
2022-12-15T19:17:38.467Z,-0.21
2022-12-15T19:20:25.439Z,-0.60
2022-12-15T19:22:53.714Z,-0.61
2022-12-15T19:25:26.166Z,-0.42
2022-12-15T19:27:58.708Z,-0.36
2022-12-15T19:30:28.501Z,-0.30
2022-12-15T19:32:57.969Z,-0.37
2022-12-15T19:35:27.286Z,-0.21
2022-12-15T19:38:00.155Z,-0.28
2022-12-15T19:40:32.313Z,-0.19
2022-12-15T19:43:01.465Z,-0.09
2022-12-15T19:45:31.579Z,-0.12
2022-12-15T19:48:01.176Z,-0.04
2022-12-15T19:50:31.214Z,0.21
2022-12-15T19:53:01.193Z,-0.06
2022-12-15T19:55:33.365Z,0.45
2022-12-15T19:58:02.108Z,0.38
2022-12-15T20:00:29.916Z,0.14
2022-12-15T20:02:59.995Z,0.33
2022-12-15T20:05:27.891Z,-0.10
2022-12-15T20:07:56.052Z,-0.17
2022-12-15T20:10:31.957Z,-0.01
2022-12-15T20:13:00.560Z,0.20
2022-12-15T20:15:28.397Z,0.35
2022-12-15T20:17:57.033Z,-0.12
2022-12-15T20:20:28.564Z,-0.12
2022-12-15T20:23:00.006Z,0.01
2022-12-15T20:25:30.523Z,0.00
2022-12-15T20:28:00.328Z,0.34
2022-12-15T20:30:32.402Z,0.35
2022-12-15T20:33:00.689Z,0.17
2022-12-15T20:35:32.947Z,-0.01
2022-12-15T20:38:01.349Z,0.26
2022-12-15T20:40:30.950Z,0.49
2022-12-15T20:42:58.812Z,0.50
2022-12-15T20:45:28.137Z,0.49
2022-12-15T20:47:56.839Z,0.47
2022-12-15T20:50:32.704Z,0.43
2022-12-15T20:53:01.016Z,0.91
2022-12-15T20:55:29.485Z,0.76
2022-12-15T20:57:57.287Z,0.62
2022-12-15T21:00:24.983Z,0.57
2022-12-15T21:02:54.967Z,0.32
2022-12-15T21:05:25.401Z,0.52
2022-12-15T21:07:55.411Z,0.42
2022-12-15T21:10:23.367Z,0.24
2022-12-15T21:12:51.627Z,0.40
2022-12-15T21:15:20.921Z,0.19
2022-12-15T21:17:57.337Z,0.29
2022-12-15T21:20:39.702Z,1.07
2022-12-15T21:23:18.557Z,0.89
2022-12-15T21:25:46.539Z,0.74
2022-12-15T21:28:14.972Z,0.66
2022-12-15T21:30:43.198Z,1.11
2022-12-15T21:33:10.927Z,0.92
2022-12-15T21:35:40.228Z,0.94
2022-12-15T21:38:31.254Z,1.14
2022-12-15T21:41:00.919Z,0.61
2022-12-15T21:43:31.781Z,0.66
2022-12-15T21:46:00.190Z,1.00
2022-12-15T21:48:45.538Z,0.85
2022-12-15T21:51:15.233Z,1.13
2022-12-15T21:53:46.423Z,0.91
2022-12-15T21:56:18.150Z,1.06
2022-12-15T21:58:46.258Z,1.15
2022-12-15T22:01:15.480Z,1.09
2022-12-15T22:03:46.029Z,1.30
2022-12-15T22:06:19.738Z,0.93
2022-12-15T22:08:49.605Z,1.22
2022-12-15T22:11:21.801Z,1.03
2022-12-15T22:13:50.791Z,0.94
2022-12-15T22:16:18.612Z,1.05
2022-12-15T22:18:51.014Z,0.68
2022-12-15T22:21:19.487Z,0.77
2022-12-15T22:23:48.686Z,0.83
2022-12-15T22:26:22.659Z,0.73
2022-12-15T22:28:51.214Z,0.61
2022-12-15T22:31:19.790Z,0.72
2022-12-15T22:33:47.696Z,0.49
2022-12-15T22:36:15.482Z,0.44
2022-12-15T22:38:43.204Z,0.67
2022-12-15T22:41:19.410Z,0.54
2022-12-15T22:43:49.634Z,0.35
2022-12-15T22:46:17.682Z,0.50
2022-12-15T22:48:48.459Z,0.35
2022-12-15T22:51:17.882Z,0.44
2022-12-15T22:53:45.983Z,0.29
2022-12-15T22:56:23.694Z,0.24
2022-12-15T22:58:56.979Z,0.10
2022-12-15T23:01:26.807Z,0.26
2022-12-15T23:03:55.655Z,-0.66
2022-12-15T23:06:24.109Z,-0.45
2022-12-15T23:08:55.604Z,-0.01
2022-12-15T23:11:41.272Z,-0.33
2022-12-15T23:14:11.912Z,-0.47
2022-12-15T23:16:39.638Z,-0.31
2022-12-15T23:19:08.846Z,-0.46
2022-12-15T23:21:37.277Z,-0.62
2022-12-15T23:24:05.227Z,-0.32
2022-12-15T23:26:34.347Z,-0.21
2022-12-15T23:29:02.076Z,-0.27
2022-12-15T23:31:30.234Z,-0.22
2022-12-15T23:33:58.212Z,-0.24
2022-12-15T23:36:26.018Z,-0.24
2022-12-15T23:38:55.106Z,-0.79
2022-12-15T23:41:22.911Z,-0.86
2022-12-15T23:43:52.014Z,-1.00
2022-12-15T23:46:19.774Z,-0.99
2022-12-15T23:48:47.813Z,-0.82
2022-12-15T23:51:17.589Z,-0.93
2022-12-15T23:53:46.727Z,-1.03
2022-12-15T23:56:16.324Z,-0.93
2022-12-15T23:58:45.397Z,-0.56
